sensor_id;sensor_type;location;lat;lon;timestamp;temperature;humidity
12817;DHT22;6473;51.552;6.716;2023-03-14T00:01:17;11.10;99.90
12817;DHT22;6473;51.552;6.716;2023-03-14T00:03:47;11.20;99.90
12817;DHT22;6473;51.552;6.716;2023-03-14T00:06:14;11.20;99.90
12817;DHT22;6473;51.552;6.716;2023-03-14T00:08:43;12.50;99.90
12817;DHT22;6473;51.552;6.716;2023-03-14T00:11:18;11.20;99.90
12817;DHT22;6473;51.552;6.716;2023-03-14T00:13:46;11.30;99.90
12817;DHT22;6473;51.552;6.716;2023-03-14T00:16:14;11.20;99.90
12817;DHT22;6473;51.552;6.716;2023-03-14T00:21:10;11.20;99.90
12817;DHT22;6473;51.552;6.716;2023-03-14T00:23:40;11.30;99.90
12817;DHT22;6473;51.552;6.716;2023-03-14T00:26:09;11.30;99.90
12817;DHT22;6473;51.552;6.716;2023-03-14T00:28:36;11.10;99.90
12817;DHT22;6473;51.552;6.716;2023-03-14T00:31:04;11.10;99.90
12817;DHT22;6473;51.552;6.716;2023-03-14T00:33:33;11.10;99.90
12817;DHT22;6473;51.552;6.716;2023-03-14T00:36:02;11.10;99.90
12817;DHT22;6473;51.552;6.716;2023-03-14T00:38:32;11.10;99.90
12817;DHT22;6473;51.552;6.716;2023-03-14T00:40:59;10.90;99.90
12817;DHT22;6473;51.552;6.716;2023-03-14T00:43:26;10.80;99.90
12817;DHT22;6473;51.552;6.716;2023-03-14T00:53:16;10.60;99.90
12817;DHT22;6473;51.552;6.716;2023-03-14T00:55:45;10.60;99.90
12817;DHT22;6473;51.552;6.716;2023-03-14T00:58:13;10.50;99.90
12817;DHT22;6473;51.552;6.716;2023-03-14T01:00:41;10.50;99.90
12817;DHT22;6473;51.552;6.716;2023-03-14T01:03:09;10.40;99.90
12817;DHT22;6473;51.552;6.716;2023-03-14T01:05:37;10.40;99.90
12817;DHT22;6473;51.552;6.716;2023-03-14T01:08:04;10.40;99.90
12817;DHT22;6473;51.552;6.716;2023-03-14T01:10:33;10.30;99.90
12817;DHT22;6473;51.552;6.716;2023-03-14T01:13:02;10.30;99.90
12817;DHT22;6473;51.552;6.716;2023-03-14T01:15:28;10.20;99.90
12817;DHT22;6473;51.552;6.716;2023-03-14T01:17:55;10.30;99.90
12817;DHT22;6473;51.552;6.716;2023-03-14T01:20:22;10.30;99.90
12817;DHT22;6473;51.552;6.716;2023-03-14T01:22:49;10.30;99.90
12817;DHT22;6473;51.552;6.716;2023-03-14T01:25:16;10.20;99.90
12817;DHT22;6473;51.552;6.716;2023-03-14T01:27:44;10.20;99.90
12817;DHT22;6473;51.552;6.716;2023-03-14T01:30:13;10.20;99.90
12817;DHT22;6473;51.552;6.716;2023-03-14T01:32:40;10.20;99.90
12817;DHT22;6473;51.552;6.716;2023-03-14T01:35:07;10.30;99.90
12817;DHT22;6473;51.552;6.716;2023-03-14T01:40:04;10.30;99.90
12817;DHT22;6473;51.552;6.716;2023-03-14T01:42:31;10.20;99.90
12817;DHT22;6473;51.552;6.716;2023-03-14T01:45:00;10.10;99.90
12817;DHT22;6473;51.552;6.716;2023-03-14T01:47:30;10.10;99.90
12817;DHT22;6473;51.552;6.716;2023-03-14T01:49:59;10.00;99.90
12817;DHT22;6473;51.552;6.716;2023-03-14T01:52:31;10.00;99.90
12817;DHT22;6473;51.552;6.716;2023-03-14T01:55:04;9.90;99.90
12817;DHT22;6473;51.552;6.716;2023-03-14T01:57:33;9.90;99.90
12817;DHT22;6473;51.552;6.716;2023-03-14T02:00:05;9.80;99.90
12817;DHT22;6473;51.552;6.716;2023-03-14T02:02:42;9.80;99.90
12817;DHT22;6473;51.552;6.716;2023-03-14T02:05:14;9.70;99.90
12817;DHT22;6473;51.552;6.716;2023-03-14T02:07:48;9.70;99.90
12817;DHT22;6473;51.552;6.716;2023-03-14T02:10:23;9.70;99.90
12817;DHT22;6473;51.552;6.716;2023-03-14T02:12:52;9.70;99.90
12817;DHT22;6473;51.552;6.716;2023-03-14T02:15:45;6.70;99.90
12817;DHT22;6473;51.552;6.716;2023-03-14T02:18:27;9.70;99.90
12817;DHT22;6473;51.552;6.716;2023-03-14T02:21:20;9.70;99.90
12817;DHT22;6473;51.552;6.716;2023-03-14T02:23:55;9.70;99.90
12817;DHT22;6473;51.552;6.716;2023-03-14T02:26:36;9.70;99.90
12817;DHT22;6473;51.552;6.716;2023-03-14T02:29:06;9.70;99.90
12817;DHT22;6473;51.552;6.716;2023-03-14T02:34:05;9.60;99.90
12817;DHT22;6473;51.552;6.716;2023-03-14T02:36:34;9.60;99.90
12817;DHT22;6473;51.552;6.716;2023-03-14T02:39:07;9.60;99.90
12817;DHT22;6473;51.552;6.716;2023-03-14T02:41:39;9.60;99.90
12817;DHT22;6473;51.552;6.716;2023-03-14T02:44:09;9.60;99.90
12817;DHT22;6473;51.552;6.716;2023-03-14T02:49:04;9.60;99.90
12817;DHT22;6473;51.552;6.716;2023-03-14T02:51:35;9.60;99.90
12817;DHT22;6473;51.552;6.716;2023-03-14T02:54:05;9.70;99.90
12817;DHT22;6473;51.552;6.716;2023-03-14T02:56:33;9.60;99.90
12817;DHT22;6473;51.552;6.716;2023-03-14T02:59:02;9.50;99.90
12817;DHT22;6473;51.552;6.716;2023-03-14T03:01:40;9.60;99.90
12817;DHT22;6473;51.552;6.716;2023-03-14T03:04:07;9.60;99.90
12817;DHT22;6473;51.552;6.716;2023-03-14T03:11:32;9.60;99.90
12817;DHT22;6473;51.552;6.716;2023-03-14T03:13:59;9.70;99.90
12817;DHT22;6473;51.552;6.716;2023-03-14T03:16:28;9.70;99.90
12817;DHT22;6473;51.552;6.716;2023-03-14T03:18:56;9.70;99.90
12817;DHT22;6473;51.552;6.716;2023-03-14T03:21:23;9.80;99.90
12817;DHT22;6473;51.552;6.716;2023-03-14T03:26:18;9.80;99.90
12817;DHT22;6473;51.552;6.716;2023-03-14T03:36:10;9.80;99.90
12817;DHT22;6473;51.552;6.716;2023-03-14T03:41:07;9.90;99.90
12817;DHT22;6473;51.552;6.716;2023-03-14T03:43:35;9.80;99.90
12817;DHT22;6473;51.552;6.716;2023-03-14T03:46:05;9.90;99.90
12817;DHT22;6473;51.552;6.716;2023-03-14T03:48:34;9.90;99.90
12817;DHT22;6473;51.552;6.716;2023-03-14T03:53:33;12.90;99.90
12817;DHT22;6473;51.552;6.716;2023-03-14T04:01:15;9.90;99.90
12817;DHT22;6473;51.552;6.716;2023-03-14T04:06:13;9.90;99.90
12817;DHT22;6473;51.552;6.716;2023-03-14T04:08:45;9.90;99.90
12817;DHT22;6473;51.552;6.716;2023-03-14T04:16:38;9.90;99.90
12817;DHT22;6473;51.552;6.716;2023-03-14T04:24:12;9.90;99.90
12817;DHT22;6473;51.552;6.716;2023-03-14T04:26:41;11.30;99.90
12817;DHT22;6473;51.552;6.716;2023-03-14T04:31:38;9.80;99.90
12817;DHT22;6473;51.552;6.716;2023-03-14T04:34:04;9.80;99.90
12817;DHT22;6473;51.552;6.716;2023-03-14T04:39:08;9.70;99.90
12817;DHT22;6473;51.552;6.716;2023-03-14T04:41:39;9.60;99.90
12817;DHT22;6473;51.552;6.716;2023-03-14T04:44:07;9.40;99.90
12817;DHT22;6473;51.552;6.716;2023-03-14T04:49:05;9.20;99.90
12817;DHT22;6473;51.552;6.716;2023-03-14T04:51:32;9.10;99.90
12817;DHT22;6473;51.552;6.716;2023-03-14T04:53:59;9.00;99.90
12817;DHT22;6473;51.552;6.716;2023-03-14T04:58:54;8.90;99.90
12817;DHT22;6473;51.552;6.716;2023-03-14T05:01:21;8.90;99.90
12817;DHT22;6473;51.552;6.716;2023-03-14T05:04:11;8.80;99.90
12817;DHT22;6473;51.552;6.716;2023-03-14T05:07:01;8.80;99.90
12817;DHT22;6473;51.552;6.716;2023-03-14T05:09:41;8.80;99.90
12817;DHT22;6473;51.552;6.716;2023-03-14T05:15:47;8.50;99.90
12817;DHT22;6473;51.552;6.716;2023-03-14T05:18:40;8.50;99.90
12817;DHT22;6473;51.552;6.716;2023-03-14T05:21:27;8.50;99.90
12817;DHT22;6473;51.552;6.716;2023-03-14T05:26:56;8.30;99.90
12817;DHT22;6473;51.552;6.716;2023-03-14T05:29:35;8.30;99.90
12817;DHT22;6473;51.552;6.716;2023-03-14T05:32:30;8.30;99.90
12817;DHT22;6473;51.552;6.716;2023-03-14T05:38:05;8.30;99.90
12817;DHT22;6473;51.552;6.716;2023-03-14T05:40:50;8.20;99.90
12817;DHT22;6473;51.552;6.716;2023-03-14T05:46:30;8.30;99.90
12817;DHT22;6473;51.552;6.716;2023-03-14T05:49:09;8.30;99.90
12817;DHT22;6473;51.552;6.716;2023-03-14T05:55:00;8.20;99.90
12817;DHT22;6473;51.552;6.716;2023-03-14T05:57:52;8.30;99.90
12817;DHT22;6473;51.552;6.716;2023-03-14T06:01:01;8.30;99.90
12817;DHT22;6473;51.552;6.716;2023-03-14T06:06:10;8.30;99.90
12817;DHT22;6473;51.552;6.716;2023-03-14T06:08:39;8.40;99.90
12817;DHT22;6473;51.552;6.716;2023-03-14T06:11:08;8.40;99.90
12817;DHT22;6473;51.552;6.716;2023-03-14T06:16:03;8.40;99.90
12817;DHT22;6473;51.552;6.716;2023-03-14T06:20:58;8.50;99.90
12817;DHT22;6473;51.552;6.716;2023-03-14T06:23:27;8.50;99.90
12817;DHT22;6473;51.552;6.716;2023-03-14T06:28:25;8.50;99.90
12817;DHT22;6473;51.552;6.716;2023-03-14T06:33:24;8.60;99.90
12817;DHT22;6473;51.552;6.716;2023-03-14T06:35:51;8.60;99.90
12817;DHT22;6473;51.552;6.716;2023-03-14T06:38:18;8.70;99.90
12817;DHT22;6473;51.552;6.716;2023-03-14T06:40:47;8.70;99.90
12817;DHT22;6473;51.552;6.716;2023-03-14T06:43:20;8.70;99.90
12817;DHT22;6473;51.552;6.716;2023-03-14T06:45:46;8.80;99.90
12817;DHT22;6473;51.552;6.716;2023-03-14T06:50:51;8.90;99.90
12817;DHT22;6473;51.552;6.716;2023-03-14T06:55:49;8.90;99.90
12817;DHT22;6473;51.552;6.716;2023-03-14T06:58:17;9.00;99.90
12817;DHT22;6473;51.552;6.716;2023-03-14T07:00:45;9.00;99.90
12817;DHT22;6473;51.552;6.716;2023-03-14T07:03:16;9.00;99.90
12817;DHT22;6473;51.552;6.716;2023-03-14T07:05:47;9.10;99.90
12817;DHT22;6473;51.552;6.716;2023-03-14T07:08:15;9.00;99.90
12817;DHT22;6473;51.552;6.716;2023-03-14T07:10:42;9.10;99.90
12817;DHT22;6473;51.552;6.716;2023-03-14T07:13:11;9.10;99.90
12817;DHT22;6473;51.552;6.716;2023-03-14T07:15:48;9.10;99.90
12817;DHT22;6473;51.552;6.716;2023-03-14T07:20:45;9.10;99.90
12817;DHT22;6473;51.552;6.716;2023-03-14T07:25:46;9.10;99.90
12817;DHT22;6473;51.552;6.716;2023-03-14T07:28:16;9.10;99.90
12817;DHT22;6473;51.552;6.716;2023-03-14T07:30:51;9.20;99.90
12817;DHT22;6473;51.552;6.716;2023-03-14T07:35:54;9.30;99.90
12817;DHT22;6473;51.552;6.716;2023-03-14T07:38:27;9.30;99.90
12817;DHT22;6473;51.552;6.716;2023-03-14T07:41:19;9.40;99.90
12817;DHT22;6473;51.552;6.716;2023-03-14T07:44:08;9.50;99.90
12817;DHT22;6473;51.552;6.716;2023-03-14T07:51:33;9.50;99.90
12817;DHT22;6473;51.552;6.716;2023-03-14T08:01:26;9.70;99.90
12817;DHT22;6473;51.552;6.716;2023-03-14T08:03:53;9.70;99.90
12817;DHT22;6473;51.552;6.716;2023-03-14T08:06:23;9.80;99.90
12817;DHT22;6473;51.552;6.716;2023-03-14T08:08:51;9.80;99.90
12817;DHT22;6473;51.552;6.716;2023-03-14T08:11:18;9.90;99.90
12817;DHT22;6473;51.552;6.716;2023-03-14T08:16:15;10.00;99.90
12817;DHT22;6473;51.552;6.716;2023-03-14T08:18:44;9.80;99.90
12817;DHT22;6473;51.552;6.716;2023-03-14T08:21:14;10.00;99.90
12817;DHT22;6473;51.552;6.716;2023-03-14T08:23:46;10.00;99.90
12817;DHT22;6473;51.552;6.716;2023-03-14T08:33:34;9.90;99.90
12817;DHT22;6473;51.552;6.716;2023-03-14T08:36:03;9.90;99.90
12817;DHT22;6473;51.552;6.716;2023-03-14T08:38:30;9.90;99.90
12817;DHT22;6473;51.552;6.716;2023-03-14T08:40:57;9.90;99.90
12817;DHT22;6473;51.552;6.716;2023-03-14T08:48:19;10.00;99.90
12817;DHT22;6473;51.552;6.716;2023-03-14T08:53:15;10.00;99.90
12817;DHT22;6473;51.552;6.716;2023-03-14T08:55:41;10.10;99.90
12817;DHT22;6473;51.552;6.716;2023-03-14T09:00:36;10.00;99.90
12817;DHT22;6473;51.552;6.716;2023-03-14T09:03:02;9.20;99.90
12817;DHT22;6473;51.552;6.716;2023-03-14T09:05:33;9.00;99.90
12817;DHT22;6473;51.552;6.716;2023-03-14T09:08:00;8.80;99.90
12817;DHT22;6473;51.552;6.716;2023-03-14T09:10:28;8.70;99.90
12817;DHT22;6473;51.552;6.716;2023-03-14T09:12:55;8.50;99.90
12817;DHT22;6473;51.552;6.716;2023-03-14T09:17:50;8.20;99.90
12817;DHT22;6473;51.552;6.716;2023-03-14T09:20:17;8.20;99.90
12817;DHT22;6473;51.552;6.716;2023-03-14T09:22:44;8.20;99.90
12817;DHT22;6473;51.552;6.716;2023-03-14T09:25:11;8.10;99.90
12817;DHT22;6473;51.552;6.716;2023-03-14T09:27:39;8.20;99.90
12817;DHT22;6473;51.552;6.716;2023-03-14T09:30:08;8.10;99.90
12817;DHT22;6473;51.552;6.716;2023-03-14T09:32:35;8.00;99.90
12817;DHT22;6473;51.552;6.716;2023-03-14T09:35:03;8.10;99.90
12817;DHT22;6473;51.552;6.716;2023-03-14T09:42:26;8.10;99.90
12817;DHT22;6473;51.552;6.716;2023-03-14T09:44:59;8.10;99.90
12817;DHT22;6473;51.552;6.716;2023-03-14T09:47:29;8.00;99.90
12817;DHT22;6473;51.552;6.716;2023-03-14T09:52:30;8.00;99.90
12817;DHT22;6473;51.552;6.716;2023-03-14T09:55:01;7.90;99.90
12817;DHT22;6473;51.552;6.716;2023-03-14T09:57:29;7.90;99.90
12817;DHT22;6473;51.552;6.716;2023-03-14T10:00:03;7.90;99.90
12817;DHT22;6473;51.552;6.716;2023-03-14T10:02:39;7.90;99.90
12817;DHT22;6473;51.552;6.716;2023-03-14T10:05:14;7.90;99.90
12817;DHT22;6473;51.552;6.716;2023-03-14T10:07:42;8.00;99.90
12817;DHT22;6473;51.552;6.716;2023-03-14T10:10:11;7.80;99.90
12817;DHT22;6473;51.552;6.716;2023-03-14T10:12:40;7.70;99.90
12817;DHT22;6473;51.552;6.716;2023-03-14T10:15:11;7.60;99.90
12817;DHT22;6473;51.552;6.716;2023-03-14T10:17:42;7.50;99.90
12817;DHT22;6473;51.552;6.716;2023-03-14T10:20:26;7.30;99.90
12817;DHT22;6473;51.552;6.716;2023-03-14T10:22:58;7.20;99.90
12817;DHT22;6473;51.552;6.716;2023-03-14T10:25:27;7.30;99.90
12817;DHT22;6473;51.552;6.716;2023-03-14T10:30:35;7.20;99.90
12817;DHT22;6473;51.552;6.716;2023-03-14T10:33:10;7.10;99.90
12817;DHT22;6473;51.552;6.716;2023-03-14T10:35:37;6.90;99.90
12817;DHT22;6473;51.552;6.716;2023-03-14T10:38:04;7.00;99.90
12817;DHT22;6473;51.552;6.716;2023-03-14T10:40:34;7.00;99.90
12817;DHT22;6473;51.552;6.716;2023-03-14T10:43:05;6.90;99.90
12817;DHT22;6473;51.552;6.716;2023-03-14T10:45:36;7.40;99.90
12817;DHT22;6473;51.552;6.716;2023-03-14T10:48:21;7.00;99.90
12817;DHT22;6473;51.552;6.716;2023-03-14T10:50:57;7.10;99.90
12817;DHT22;6473;51.552;6.716;2023-03-14T10:53:25;7.40;99.90
12817;DHT22;6473;51.552;6.716;2023-03-14T10:55:52;7.50;99.90
12817;DHT22;6473;51.552;6.716;2023-03-14T10:58:24;7.50;99.90
12817;DHT22;6473;51.552;6.716;2023-03-14T11:01:07;7.40;99.90
12817;DHT22;6473;51.552;6.716;2023-03-14T11:03:38;7.40;99.90
12817;DHT22;6473;51.552;6.716;2023-03-14T11:06:12;7.30;99.90
12817;DHT22;6473;51.552;6.716;2023-03-14T11:08:46;7.50;99.90
12817;DHT22;6473;51.552;6.716;2023-03-14T11:11:19;7.60;99.90
12817;DHT22;6473;51.552;6.716;2023-03-14T11:13:58;7.70;99.90
12817;DHT22;6473;51.552;6.716;2023-03-14T11:16:34;7.70;99.90
12817;DHT22;6473;51.552;6.716;2023-03-14T11:19:16;8.10;99.90
12817;DHT22;6473;51.552;6.716;2023-03-14T11:21:49;8.00;99.90
12817;DHT22;6473;51.552;6.716;2023-03-14T11:24:32;7.90;99.90
12817;DHT22;6473;51.552;6.716;2023-03-14T11:27:06;7.80;99.90
12817;DHT22;6473;51.552;6.716;2023-03-14T11:29:39;7.80;99.90
12817;DHT22;6473;51.552;6.716;2023-03-14T11:32:13;7.80;99.90
12817;DHT22;6473;51.552;6.716;2023-03-14T11:34:48;7.90;99.90
12817;DHT22;6473;51.552;6.716;2023-03-14T11:37:21;7.90;99.90
12817;DHT22;6473;51.552;6.716;2023-03-14T11:39:56;7.90;99.90
12817;DHT22;6473;51.552;6.716;2023-03-14T11:42:26;7.70;99.90
12817;DHT22;6473;51.552;6.716;2023-03-14T11:44:55;7.60;99.90
12817;DHT22;6473;51.552;6.716;2023-03-14T11:47:26;7.70;99.90
12817;DHT22;6473;51.552;6.716;2023-03-14T11:50:00;7.90;99.90
12817;DHT22;6473;51.552;6.716;2023-03-14T11:52:32;8.10;99.90
12817;DHT22;6473;51.552;6.716;2023-03-14T11:55:04;8.00;99.90
12817;DHT22;6473;51.552;6.716;2023-03-14T11:57:32;8.00;99.90
12817;DHT22;6473;51.552;6.716;2023-03-14T12:00:04;8.30;99.90
12817;DHT22;6473;51.552;6.716;2023-03-14T12:02:47;8.80;99.90
12817;DHT22;6473;51.552;6.716;2023-03-14T12:05:30;8.90;99.90
12817;DHT22;6473;51.552;6.716;2023-03-14T12:11:01;8.60;99.90
12817;DHT22;6473;51.552;6.716;2023-03-14T12:13:33;8.10;99.90
12817;DHT22;6473;51.552;6.716;2023-03-14T12:16:04;8.00;99.90
12817;DHT22;6473;51.552;6.716;2023-03-14T12:18:35;7.70;99.90
12817;DHT22;6473;51.552;6.716;2023-03-14T12:21:06;7.40;99.90
12817;DHT22;6473;51.552;6.716;2023-03-14T12:23:37;7.40;99.90
12817;DHT22;6473;51.552;6.716;2023-03-14T12:26:14;7.30;99.90
12817;DHT22;6473;51.552;6.716;2023-03-14T12:28:43;7.10;99.90
12817;DHT22;6473;51.552;6.716;2023-03-14T12:31:37;7.00;99.90
12817;DHT22;6473;51.552;6.716;2023-03-14T12:34:26;7.00;99.90
12817;DHT22;6473;51.552;6.716;2023-03-14T12:37:20;7.10;99.90
12817;DHT22;6473;51.552;6.716;2023-03-14T12:40:03;7.20;99.90
12817;DHT22;6473;51.552;6.716;2023-03-14T12:42:50;7.60;99.90
12817;DHT22;6473;51.552;6.716;2023-03-14T12:45:24;7.90;99.90
12817;DHT22;6473;51.552;6.716;2023-03-14T12:48:00;8.30;99.90
12817;DHT22;6473;51.552;6.716;2023-03-14T12:50:36;8.40;99.90
12817;DHT22;6473;51.552;6.716;2023-03-14T12:53:39;8.30;99.90
12817;DHT22;6473;51.552;6.716;2023-03-14T12:59:28;7.30;99.90
12817;DHT22;6473;51.552;6.716;2023-03-14T13:02:00;6.90;99.90
12817;DHT22;6473;51.552;6.716;2023-03-14T13:04:31;6.80;99.90
12817;DHT22;6473;51.552;6.716;2023-03-14T13:07:01;6.80;99.90
12817;DHT22;6473;51.552;6.716;2023-03-14T13:12:50;7.10;99.90
12817;DHT22;6473;51.552;6.716;2023-03-14T13:15:21;7.40;99.90
12817;DHT22;6473;51.552;6.716;2023-03-14T13:17:51;7.50;99.90
12817;DHT22;6473;51.552;6.716;2023-03-14T13:20:23;7.60;99.90
12817;DHT22;6473;51.552;6.716;2023-03-14T13:22:52;10.30;99.90
12817;DHT22;6473;51.552;6.716;2023-03-14T13:25:20;7.70;99.90
12817;DHT22;6473;51.552;6.716;2023-03-14T13:27:48;7.80;99.90
12817;DHT22;6473;51.552;6.716;2023-03-14T13:30:19;7.80;99.90
12817;DHT22;6473;51.552;6.716;2023-03-14T13:32:48;8.40;99.90
12817;DHT22;6473;51.552;6.716;2023-03-14T13:35:21;9.60;99.90
12817;DHT22;6473;51.552;6.716;2023-03-14T13:37:55;10.10;99.90
12817;DHT22;6473;51.552;6.716;2023-03-14T13:40:29;10.40;99.90
12817;DHT22;6473;51.552;6.716;2023-03-14T13:43:02;10.80;97.90
12817;DHT22;6473;51.552;6.716;2023-03-14T13:45:30;10.80;92.70
12817;DHT22;6473;51.552;6.716;2023-03-14T13:47:57;10.90;88.70
12817;DHT22;6473;51.552;6.716;2023-03-14T13:52:56;11.10;65.00
12817;DHT22;6473;51.552;6.716;2023-03-14T13:57:53;11.70;19.90
12817;DHT22;6473;51.552;6.716;2023-03-14T14:00:22;11.50;13.60
12817;DHT22;6473;51.552;6.716;2023-03-14T14:02:53;11.20;23.20
12817;DHT22;6473;51.552;6.716;2023-03-14T14:05:21;11.20;22.70
12817;DHT22;6473;51.552;6.716;2023-03-14T14:07:49;12.10;9.90
12817;DHT22;6473;51.552;6.716;2023-03-14T14:10:18;13.70;1.70
12817;DHT22;6473;51.552;6.716;2023-03-14T14:12:47;14.70;1.00
12817;DHT22;6473;51.552;6.716;2023-03-14T14:15:19;15.40;1.00
12817;DHT22;6473;51.552;6.716;2023-03-14T14:17:51;15.80;1.00
12817;DHT22;6473;51.552;6.716;2023-03-14T14:20:27;15.60;1.00
12817;DHT22;6473;51.552;6.716;2023-03-14T14:22:58;15.70;1.00
12817;DHT22;6473;51.552;6.716;2023-03-14T14:25:28;15.50;1.00
12817;DHT22;6473;51.552;6.716;2023-03-14T14:27:55;15.10;1.00
12817;DHT22;6473;51.552;6.716;2023-03-14T14:30:29;16.40;1.00
12817;DHT22;6473;51.552;6.716;2023-03-14T14:33:12;16.80;1.00
12817;DHT22;6473;51.552;6.716;2023-03-14T14:35:51;16.60;1.00
12817;DHT22;6473;51.552;6.716;2023-03-14T14:38:18;15.80;1.00
12817;DHT22;6473;51.552;6.716;2023-03-14T14:40:49;16.50;1.00
12817;DHT22;6473;51.552;6.716;2023-03-14T14:43:19;15.40;1.00
12817;DHT22;6473;51.552;6.716;2023-03-14T14:45:49;15.20;1.00
12817;DHT22;6473;51.552;6.716;2023-03-14T14:48:20;15.80;1.00
12817;DHT22;6473;51.552;6.716;2023-03-14T14:50:56;16.40;1.00
12817;DHT22;6473;51.552;6.716;2023-03-14T14:53:27;15.70;1.00
12817;DHT22;6473;51.552;6.716;2023-03-14T14:55:57;14.60;1.00
12817;DHT22;6473;51.552;6.716;2023-03-14T14:58:26;13.90;1.00
12817;DHT22;6473;51.552;6.716;2023-03-14T15:00:56;13.80;1.00
12817;DHT22;6473;51.552;6.716;2023-03-14T15:03:27;13.10;1.00
12817;DHT22;6473;51.552;6.716;2023-03-14T15:08:24;12.10;1.00
12817;DHT22;6473;51.552;6.716;2023-03-14T15:13:20;11.10;1.00
12817;DHT22;6473;51.552;6.716;2023-03-14T15:18:17;9.90;1.00
12817;DHT22;6473;51.552;6.716;2023-03-14T15:20:44;9.70;1.00
12817;DHT22;6473;51.552;6.716;2023-03-14T15:25:39;9.70;1.00
12817;DHT22;6473;51.552;6.716;2023-03-14T15:28:16;9.70;1.00
12817;DHT22;6473;51.552;6.716;2023-03-14T15:30:45;9.50;1.00
12817;DHT22;6473;51.552;6.716;2023-03-14T15:33:12;8.90;1.00
12817;DHT22;6473;51.552;6.716;2023-03-14T15:38:10;9.20;4.00
12817;DHT22;6473;51.552;6.716;2023-03-14T15:40:37;9.40;5.20
12817;DHT22;6473;51.552;6.716;2023-03-14T15:43:04;9.20;1.00
12817;DHT22;6473;51.552;6.716;2023-03-14T15:45:31;9.20;5.00
12817;DHT22;6473;51.552;6.716;2023-03-14T15:47:59;9.10;7.30
12817;DHT22;6473;51.552;6.716;2023-03-14T15:52:54;8.70;5.10
12817;DHT22;6473;51.552;6.716;2023-03-14T15:57:48;8.40;7.70
12817;DHT22;6473;51.552;6.716;2023-03-14T16:00:17;8.20;8.00
12817;DHT22;6473;51.552;6.716;2023-03-14T16:05:16;8.00;6.80
12817;DHT22;6473;51.552;6.716;2023-03-14T16:07:44;8.10;16.20
12817;DHT22;6473;51.552;6.716;2023-03-14T16:10:12;8.10;14.80
12817;DHT22;6473;51.552;6.716;2023-03-14T16:12:39;8.10;15.10
12817;DHT22;6473;51.552;6.716;2023-03-14T16:15:07;8.00;10.90
12817;DHT22;6473;51.552;6.716;2023-03-14T16:17:35;8.00;19.20
12817;DHT22;6473;51.552;6.716;2023-03-14T16:20:03;7.90;17.30
12817;DHT22;6473;51.552;6.716;2023-03-14T16:22:32;7.70;17.80
12817;DHT22;6473;51.552;6.716;2023-03-14T16:25:00;7.50;19.40
12817;DHT22;6473;51.552;6.716;2023-03-14T16:29:56;7.40;21.50
12817;DHT22;6473;51.552;6.716;2023-03-14T16:32:23;7.20;17.60
12817;DHT22;6473;51.552;6.716;2023-03-14T16:39:47;6.90;40.60
12817;DHT22;6473;51.552;6.716;2023-03-14T16:42:14;6.80;31.70
12817;DHT22;6473;51.552;6.716;2023-03-14T16:44:42;6.70;34.40
12817;DHT22;6473;51.552;6.716;2023-03-14T16:52:03;6.50;37.40
12817;DHT22;6473;51.552;6.716;2023-03-14T16:56:59;6.40;38.70
12817;DHT22;6473;51.552;6.716;2023-03-14T16:59:26;6.30;35.30
12817;DHT22;6473;51.552;6.716;2023-03-14T17:11:44;6.10;29.50
12817;DHT22;6473;51.552;6.716;2023-03-14T17:14:12;6.10;36.60
12817;DHT22;6473;51.552;6.716;2023-03-14T17:16:39;6.00;42.50
12817;DHT22;6473;51.552;6.716;2023-03-14T17:19:06;6.00;40.40
12817;DHT22;6473;51.552;6.716;2023-03-14T17:21:33;6.00;38.80
12817;DHT22;6473;51.552;6.716;2023-03-14T17:26:27;5.80;50.90
12817;DHT22;6473;51.552;6.716;2023-03-14T17:31:23;5.80;61.00
12817;DHT22;6473;51.552;6.716;2023-03-14T17:33:50;5.80;60.80
12817;DHT22;6473;51.552;6.716;2023-03-14T17:38:44;5.70;51.20
12817;DHT22;6473;51.552;6.716;2023-03-14T17:41:12;5.80;50.90
12817;DHT22;6473;51.552;6.716;2023-03-14T17:43:40;5.80;64.20
12817;DHT22;6473;51.552;6.716;2023-03-14T17:46:08;5.80;63.90
12817;DHT22;6473;51.552;6.716;2023-03-14T17:48:40;5.70;68.80
12817;DHT22;6473;51.552;6.716;2023-03-14T17:51:08;5.60;75.30
12817;DHT22;6473;51.552;6.716;2023-03-14T17:53:35;5.70;78.40
12817;DHT22;6473;51.552;6.716;2023-03-14T17:58:30;5.70;86.30
12817;DHT22;6473;51.552;6.716;2023-03-14T18:01:07;5.50;80.20
12817;DHT22;6473;51.552;6.716;2023-03-14T18:06:05;5.60;84.50
12817;DHT22;6473;51.552;6.716;2023-03-14T18:08:32;5.60;88.50
12817;DHT22;6473;51.552;6.716;2023-03-14T18:13:26;5.50;92.80
12817;DHT22;6473;51.552;6.716;2023-03-14T18:18:20;5.40;90.80
12817;DHT22;6473;51.552;6.716;2023-03-14T18:20:51;5.40;91.50
12817;DHT22;6473;51.552;6.716;2023-03-14T18:23:20;5.40;87.60
12817;DHT22;6473;51.552;6.716;2023-03-14T18:25:47;5.40;90.00
12817;DHT22;6473;51.552;6.716;2023-03-14T18:28:15;5.40;79.10
12817;DHT22;6473;51.552;6.716;2023-03-14T18:30:45;5.30;89.30
12817;DHT22;6473;51.552;6.716;2023-03-14T18:39:13;5.20;84.50
12817;DHT22;6473;51.552;6.716;2023-03-14T18:41:40;5.20;79.00
12817;DHT22;6473;51.552;6.716;2023-03-14T18:44:08;5.10;77.90
12817;DHT22;6473;51.552;6.716;2023-03-14T18:49:03;5.20;83.40
12817;DHT22;6473;51.552;6.716;2023-03-14T18:51:31;5.10;86.80
12817;DHT22;6473;51.552;6.716;2023-03-14T18:53:59;5.10;87.20
12817;DHT22;6473;51.552;6.716;2023-03-14T18:56:27;5.10;91.10
12817;DHT22;6473;51.552;6.716;2023-03-14T18:58:56;5.00;89.80
12817;DHT22;6473;51.552;6.716;2023-03-14T19:01:23;5.00;92.40
12817;DHT22;6473;51.552;6.716;2023-03-14T19:03:54;5.00;94.30
12817;DHT22;6473;51.552;6.716;2023-03-14T19:06:21;5.00;92.00
12817;DHT22;6473;51.552;6.716;2023-03-14T19:08:49;5.10;92.50
12817;DHT22;6473;51.552;6.716;2023-03-14T19:11:17;5.10;94.40
12817;DHT22;6473;51.552;6.716;2023-03-14T19:13:50;5.10;93.70
12817;DHT22;6473;51.552;6.716;2023-03-14T19:16:17;5.10;92.70
12817;DHT22;6473;51.552;6.716;2023-03-14T19:21:14;5.10;90.50
12817;DHT22;6473;51.552;6.716;2023-03-14T19:23:51;5.00;90.60
12817;DHT22;6473;51.552;6.716;2023-03-14T19:26:17;4.90;83.60
12817;DHT22;6473;51.552;6.716;2023-03-14T19:28:45;4.90;78.10
12817;DHT22;6473;51.552;6.716;2023-03-14T19:31:14;4.90;87.70
12817;DHT22;6473;51.552;6.716;2023-03-14T19:33:41;4.80;88.00
12817;DHT22;6473;51.552;6.716;2023-03-14T19:36:11;4.80;85.60
12817;DHT22;6473;51.552;6.716;2023-03-14T19:38:51;4.80;83.00
12817;DHT22;6473;51.552;6.716;2023-03-14T19:41:19;4.70;94.60
12817;DHT22;6473;51.552;6.716;2023-03-14T19:46:15;4.60;93.40
12817;DHT22;6473;51.552;6.716;2023-03-14T19:56:06;4.40;99.90
12817;DHT22;6473;51.552;6.716;2023-03-14T19:58:34;4.40;99.70
12817;DHT22;6473;51.552;6.716;2023-03-14T20:03:29;4.30;99.90
12817;DHT22;6473;51.552;6.716;2023-03-14T20:15:45;4.00;99.90
12817;DHT22;6473;51.552;6.716;2023-03-14T20:20:41;4.00;99.90
12817;DHT22;6473;51.552;6.716;2023-03-14T20:25:35;3.90;99.90
12817;DHT22;6473;51.552;6.716;2023-03-14T20:35:29;3.70;99.90
12817;DHT22;6473;51.552;6.716;2023-03-14T20:37:58;3.60;99.90
12817;DHT22;6473;51.552;6.716;2023-03-14T20:42:59;3.60;99.90
12817;DHT22;6473;51.552;6.716;2023-03-14T20:50:23;3.40;99.90
12817;DHT22;6473;51.552;6.716;2023-03-14T20:55:19;3.40;99.90
12817;DHT22;6473;51.552;6.716;2023-03-14T21:07:36;4.50;99.90
12817;DHT22;6473;51.552;6.716;2023-03-14T21:10:08;3.10;99.90
12817;DHT22;6473;51.552;6.716;2023-03-14T21:12:36;3.00;99.90
12817;DHT22;6473;51.552;6.716;2023-03-14T21:15:04;3.00;99.90